createdAt,value
2022-12-14T00:02:24.090Z,98497.11
2022-12-14T00:05:43.437Z,98496.41
2022-12-14T00:09:03.929Z,98492.31
2022-12-14T00:12:20.361Z,98487.89
2022-12-14T00:15:36.988Z,98493.78
2022-12-14T00:18:56.313Z,98489.83
2022-12-14T00:22:12.571Z,98487.66
2022-12-14T00:25:29.076Z,98489.42
2022-12-14T00:28:46.066Z,98479.94
2022-12-14T00:32:02.400Z,98479.05
2022-12-14T00:35:22.412Z,98485.43
2022-12-14T00:38:39.077Z,98473.95
2022-12-14T00:41:56.274Z,98475.56
2022-12-14T00:45:15.126Z,98469.78
2022-12-14T00:48:33.162Z,98482.89
2022-12-14T00:51:51.237Z,98476.03
2022-12-14T00:55:07.443Z,98481.94
2022-12-14T00:58:28.699Z,98486.47
2022-12-14T01:01:46.931Z,98479.66
2022-12-14T01:05:05.462Z,98475.30
2022-12-14T01:08:21.812Z,98474.84
2022-12-14T01:11:38.536Z,98468.23
2022-12-14T01:14:56.007Z,98467.52
2022-12-14T01:18:13.936Z,98463.34
2022-12-14T01:21:32.443Z,98467.59
2022-12-14T01:24:50.782Z,98461.20
2022-12-14T01:28:07.867Z,98458.64
2022-12-14T01:31:28.251Z,98461.83
2022-12-14T01:34:44.848Z,98461.99
2022-12-14T01:38:01.296Z,98461.20
2022-12-14T01:41:26.077Z,98452.92
2022-12-14T01:45:11.993Z,98450.47
2022-12-14T01:48:28.983Z,98440.98
2022-12-14T01:51:48.912Z,98441.95
2022-12-14T01:55:10.370Z,98442.19
2022-12-14T01:58:30.459Z,98438.59
2022-12-14T02:01:49.281Z,98434.59
2022-12-14T02:05:09.475Z,98437.16
2022-12-14T02:08:28.965Z,98433.25
2022-12-14T02:11:52.157Z,98430.68
2022-12-14T02:15:12.281Z,98436.17
2022-12-14T02:18:32.033Z,98430.49
2022-12-14T02:22:06.019Z,98428.25
2022-12-14T02:25:50.877Z,98433.29
2022-12-14T02:30:00.249Z,98432.41
2022-12-14T02:33:31.582Z,98431.15
2022-12-14T02:36:52.968Z,98427.59
2022-12-14T02:40:19.905Z,98422.34
2022-12-14T02:43:41.893Z,98416.16
2022-12-14T02:47:03.913Z,98419.33
2022-12-14T02:50:25.633Z,98414.60
2022-12-14T02:53:47.931Z,98415.49
2022-12-14T02:57:09.884Z,98411.64
2022-12-14T03:00:29.255Z,98408.52
2022-12-14T03:03:51.281Z,98402.50
2022-12-14T03:07:24.607Z,98410.77
2022-12-14T03:10:50.068Z,98403.33
2022-12-14T03:14:12.475Z,98407.80
2022-12-14T03:17:34.449Z,98409.86
2022-12-14T03:20:54.115Z,98406.81
2022-12-14T03:24:14.274Z,98409.24
2022-12-14T03:27:35.398Z,98404.76
2022-12-14T03:31:00.264Z,98403.45
2022-12-14T03:34:18.032Z,98399.94
2022-12-14T03:37:38.426Z,98405.69
2022-12-14T03:41:01.794Z,98402.47
2022-12-14T03:44:31.265Z,98408.28
2022-12-14T03:48:02.775Z,98399.08
2022-12-14T03:51:26.275Z,98396.45
2022-12-14T03:54:51.451Z,98387.66
2022-12-14T03:58:41.646Z,98392.86
2022-12-14T04:02:03.651Z,98391.86
2022-12-14T04:05:24.270Z,98393.12
2022-12-14T04:08:47.098Z,98386.80
2022-12-14T04:12:24.927Z,98385.47
2022-12-14T04:15:57.947Z,98390.16
2022-12-14T04:19:19.496Z,98385.19
2022-12-14T04:22:42.415Z,98384.72
2022-12-14T04:26:09.899Z,98376.78
2022-12-14T04:29:47.427Z,98373.73
2022-12-14T04:33:10.950Z,98379.34
2022-12-14T04:36:33.459Z,98375.88
2022-12-14T04:39:55.194Z,98371.00
2022-12-14T04:43:15.901Z,98375.17
2022-12-14T04:46:40.508Z,98373.45
2022-12-14T04:50:00.676Z,98365.38
2022-12-14T04:53:21.382Z,98370.17
2022-12-14T04:56:42.500Z,98363.20
2022-12-14T04:59:59.573Z,98361.84
2022-12-14T05:03:27.693Z,98363.02
2022-12-14T05:06:49.946Z,98357.89
2022-12-14T05:10:11.750Z,98353.66
2022-12-14T05:13:31.973Z,98351.39
2022-12-14T05:16:51.285Z,98338.48
2022-12-14T05:20:05.602Z,98337.44
2022-12-14T05:23:22.830Z,98322.89
2022-12-14T05:26:41.018Z,98327.37
2022-12-14T05:29:57.299Z,98335.43
2022-12-14T05:33:14.789Z,98324.80
2022-12-14T05:36:31.226Z,98321.11
2022-12-14T05:39:47.433Z,98333.70
2022-12-14T05:43:15.145Z,98332.42
2022-12-14T05:46:31.483Z,98329.31
2022-12-14T05:49:49.219Z,98328.46
2022-12-14T05:53:05.126Z,98324.84
2022-12-14T05:56:24.677Z,98334.65
2022-12-14T05:59:41.286Z,98329.11
2022-12-14T06:02:57.590Z,98330.70
2022-12-14T06:06:17.075Z,98339.72
2022-12-14T06:09:32.168Z,98324.99
2022-12-14T06:12:48.270Z,98327.56
2022-12-14T06:16:16.251Z,98330.25
2022-12-14T06:19:32.607Z,98334.06
2022-12-14T06:22:49.319Z,98334.84
2022-12-14T06:26:06.178Z,98337.30
2022-12-14T06:29:25.826Z,98321.38
2022-12-14T06:32:42.080Z,98315.22
2022-12-14T06:35:58.357Z,98306.45
2022-12-14T06:39:19.571Z,98306.26
2022-12-14T06:42:35.886Z,98312.84
2022-12-14T06:45:52.224Z,98316.30
2022-12-14T06:49:08.957Z,98318.83
2022-12-14T06:52:26.901Z,98322.50
2022-12-14T06:55:43.103Z,98325.97
2022-12-14T06:59:00.531Z,98317.52
2022-12-14T07:02:19.590Z,98319.43
2022-12-14T07:05:36.791Z,98328.11
2022-12-14T07:08:53.199Z,98304.63
2022-12-14T07:12:09.625Z,98304.91
2022-12-14T07:15:26.086Z,98306.19
2022-12-14T07:18:43.452Z,98300.70
2022-12-14T07:22:01.750Z,98301.16
2022-12-14T07:25:18.798Z,98295.28
2022-12-14T07:28:36.456Z,98292.84
2022-12-14T07:31:52.743Z,98294.23
2022-12-14T07:35:16.516Z,98288.05
2022-12-14T07:38:30.776Z,98298.55
2022-12-14T07:41:49.824Z,98297.85
2022-12-14T07:45:12.064Z,98293.95
2022-12-14T07:48:28.749Z,98282.77
2022-12-14T07:51:47.351Z,98283.38
2022-12-14T07:55:03.723Z,98286.36
2022-12-14T07:58:20.406Z,98282.89
2022-12-14T08:01:39.808Z,98288.35
2022-12-14T08:04:57.771Z,98285.46
2022-12-14T08:08:14.363Z,98281.91
2022-12-14T08:11:31.651Z,98276.03
2022-12-14T08:14:48.180Z,98270.73
2022-12-14T08:18:05.588Z,98273.30
2022-12-14T08:21:22.940Z,98271.78
2022-12-14T08:24:39.836Z,98273.03
2022-12-14T08:27:55.985Z,98274.62
2022-12-14T08:31:18.204Z,98271.80
2022-12-14T08:34:34.608Z,98266.73
2022-12-14T08:37:51.272Z,98257.70
2022-12-14T08:41:11.620Z,98263.75
2022-12-14T08:44:28.600Z,98264.67
2022-12-14T08:47:47.292Z,98274.45
2022-12-14T08:51:08.367Z,98271.42
2022-12-14T08:54:25.023Z,98261.05
2022-12-14T08:57:41.580Z,98254.56
2022-12-14T09:00:58.606Z,98249.98
2022-12-14T09:04:18.726Z,98250.15
2022-12-14T09:07:35.346Z,98251.26
2022-12-14T09:10:56.846Z,98243.15
2022-12-14T09:14:13.066Z,98237.86
2022-12-14T09:17:29.277Z,98243.52
2022-12-14T09:20:46.036Z,98236.27
2022-12-14T09:24:04.154Z,98237.69
2022-12-14T09:27:20.677Z,98230.17
2022-12-14T09:30:36.917Z,98233.24
2022-12-14T09:33:53.328Z,98219.61
2022-12-14T09:37:11.586Z,98220.88
2022-12-14T09:40:29.742Z,98223.49
2022-12-14T09:43:53.745Z,98226.57
2022-12-14T09:47:17.144Z,98213.74
2022-12-14T09:50:35.473Z,98205.61
2022-12-14T09:54:00.719Z,98209.36
2022-12-14T09:57:20.274Z,98209.80
2022-12-14T10:00:51.472Z,98203.31
2022-12-14T10:04:07.866Z,98191.86
2022-12-14T10:07:34.127Z,98180.28
2022-12-14T10:10:59.166Z,98176.88
2022-12-14T10:14:25.502Z,98181.47
2022-12-14T10:17:57.066Z,98180.71
2022-12-14T10:21:18.126Z,98189.68
2022-12-14T10:24:38.713Z,98181.95
2022-12-14T10:28:10.856Z,98186.95
2022-12-14T10:31:25.124Z,98180.80
2022-12-14T10:34:44.751Z,98167.97
2022-12-14T10:38:09.229Z,98162.33
2022-12-14T10:41:31.496Z,98157.75
2022-12-14T10:45:09.671Z,98152.50
2022-12-14T10:48:30.991Z,98152.50
2022-12-14T10:51:52.906Z,98150.77
2022-12-14T10:55:17.665Z,98152.16
2022-12-14T10:58:35.248Z,98143.92
2022-12-14T11:01:54.155Z,98136.28
2022-12-14T11:05:20.607Z,98119.45
2022-12-14T11:08:54.425Z,98124.11
2022-12-14T11:12:24.548Z,98126.50
2022-12-14T11:15:44.950Z,98122.67
2022-12-14T11:19:09.978Z,98112.92
2022-12-14T11:22:26.433Z,98109.55
2022-12-14T11:25:51.296Z,98105.20
2022-12-14T11:29:10.053Z,98100.24
2022-12-14T11:32:35.960Z,98103.17
2022-12-14T11:36:00.654Z,98104.02
2022-12-14T11:39:29.346Z,98092.09
2022-12-14T11:42:54.425Z,98083.86
2022-12-14T11:46:11.808Z,98082.80
2022-12-14T11:49:38.754Z,98084.41
2022-12-14T11:52:55.428Z,98077.67
2022-12-14T11:56:16.943Z,98083.13
2022-12-14T11:59:44.300Z,98074.47
2022-12-14T12:03:07.652Z,98065.61
2022-12-14T12:06:31.525Z,98047.92
2022-12-14T12:09:51.050Z,98057.13
2022-12-14T12:13:07.768Z,98056.85
2022-12-14T12:16:27.804Z,98055.19
2022-12-14T12:19:48.252Z,98055.63
2022-12-14T12:23:11.876Z,98046.97
2022-12-14T12:26:35.517Z,98049.48
2022-12-14T12:29:56.670Z,98044.92
2022-12-14T12:33:39.648Z,98038.47
2022-12-14T12:37:25.249Z,98020.05
2022-12-14T12:40:25.160Z,98017.47
2022-12-14T12:43:50.022Z,98004.73
2022-12-14T12:47:31.176Z,98005.22
2022-12-14T12:50:39.728Z,97996.73
2022-12-14T12:54:01.135Z,97988.88
2022-12-14T12:57:22.606Z,97988.88
2022-12-14T13:00:41.800Z,97984.46
2022-12-14T13:04:03.229Z,97974.14
2022-12-14T13:07:30.546Z,97972.41
2022-12-14T13:14:19.079Z,97950.27
2022-12-14T13:17:43.553Z,97947.78
2022-12-14T13:21:08.946Z,97947.14
2022-12-14T13:24:29.356Z,97935.80
2022-12-14T13:27:58.629Z,97935.62
2022-12-14T13:31:33.142Z,97927.13
2022-12-14T13:34:59.833Z,97911.01
2022-12-14T13:38:36.919Z,97907.89
2022-12-14T13:41:58.089Z,97892.50
2022-12-14T13:45:27.966Z,97886.42
2022-12-14T13:48:49.507Z,97886.42
2022-12-14T13:52:07.716Z,97863.48
2022-12-14T13:55:42.813Z,97859.23
2022-12-14T13:59:01.120Z,97849.94
2022-12-14T14:02:45.872Z,97848.28
2022-12-14T14:06:09.279Z,97834.56
2022-12-14T14:10:08.547Z,97835.27
2022-12-14T14:14:09.647Z,97824.55
2022-12-14T14:17:30.769Z,97813.84
2022-12-14T14:20:58.609Z,97814.69
2022-12-14T14:24:27.258Z,97799.09
2022-12-14T14:27:51.147Z,97795.48
2022-12-14T14:31:08.325Z,97780.28
2022-12-14T14:37:42.051Z,97766.56
2022-12-14T14:41:19.211Z,97766.67
2022-12-14T14:44:31.206Z,97770.59
2022-12-14T14:47:48.668Z,97768.64
2022-12-14T14:51:26.038Z,97746.14
2022-12-14T14:55:21.796Z,97750.16
2022-12-14T14:58:18.726Z,97728.47
2022-12-14T15:01:37.516Z,97716.30
2022-12-14T15:04:57.065Z,97710.81
2022-12-14T15:08:31.401Z,97702.98
2022-12-14T15:11:56.060Z,97694.61
2022-12-14T15:15:22.892Z,97688.30
2022-12-14T15:18:40.664Z,97676.83
2022-12-14T15:22:01.007Z,97676.02
2022-12-14T15:25:23.266Z,97675.90
2022-12-14T15:28:40.039Z,97661.25
2022-12-14T15:32:02.873Z,97657.63
2022-12-14T15:35:29.791Z,97652.13
2022-12-14T15:38:46.908Z,97644.38
2022-12-14T15:42:20.533Z,97639.80
2022-12-14T15:45:43.464Z,97635.48
2022-12-14T15:49:05.360Z,97623.06
2022-12-14T15:52:22.151Z,97617.36
2022-12-14T15:55:51.442Z,97619.74
2022-12-14T15:59:11.529Z,97615.28
2022-12-14T16:02:34.904Z,97614.46
2022-12-14T16:05:52.137Z,97608.37
2022-12-14T16:09:15.014Z,97590.89
2022-12-14T16:16:00.080Z,97583.03
2022-12-14T16:19:27.839Z,97572.46
2022-12-14T16:22:42.673Z,97572.26
2022-12-14T16:26:04.608Z,97567.70
2022-12-14T16:29:31.198Z,97561.60
2022-12-14T16:32:49.976Z,97563.23
2022-12-14T16:36:13.418Z,97567.53
2022-12-14T16:39:32.118Z,97564.71
2022-12-14T16:42:47.254Z,97555.59
2022-12-14T16:46:22.893Z,97549.98
2022-12-14T16:49:43.529Z,97557.08
2022-12-14T16:53:20.681Z,97555.59
2022-12-14T16:56:45.196Z,97552.08
2022-12-14T17:00:07.323Z,97554.10
2022-12-14T17:03:31.009Z,97559.76
2022-12-14T17:06:56.212Z,97554.50
2022-12-14T17:10:16.438Z,97554.55
2022-12-14T17:13:33.808Z,97553.38
2022-12-14T17:16:51.647Z,97555.23
2022-12-14T17:20:13.884Z,97570.09
2022-12-14T17:23:29.141Z,97562.83
2022-12-14T17:26:48.234Z,97558.46
2022-12-14T17:30:05.057Z,97559.96
2022-12-14T17:33:21.415Z,97552.36
2022-12-14T17:36:37.961Z,97556.48
2022-12-14T17:39:55.547Z,97554.34
2022-12-14T17:43:17.145Z,97561.89
2022-12-14T17:46:35.018Z,97562.25
2022-12-14T17:49:53.951Z,97551.55
2022-12-14T17:53:15.464Z,97554.16
2022-12-14T17:56:32.676Z,97555.58
2022-12-14T17:59:49.222Z,97547.81
2022-12-14T18:03:06.011Z,97544.30
2022-12-14T18:06:26.133Z,97544.56
2022-12-14T18:09:50.742Z,97544.19
2022-12-14T18:13:09.305Z,97527.86
2022-12-14T18:16:29.383Z,97529.27
2022-12-14T18:19:49.486Z,97523.03
2022-12-14T18:23:06.457Z,97513.74
2022-12-14T18:26:25.353Z,97524.94
2022-12-14T18:29:42.087Z,97517.86
2022-12-14T18:33:00.072Z,97515.18
2022-12-14T18:36:22.314Z,97507.89
2022-12-14T18:39:45.692Z,97496.13
2022-12-14T18:43:05.031Z,97494.70
2022-12-14T18:46:22.616Z,97491.64
2022-12-14T18:49:39.550Z,97473.30
2022-12-14T18:52:57.961Z,97460.69
2022-12-14T18:56:17.908Z,97464.12
2022-12-14T18:59:40.603Z,97457.63
2022-12-14T19:02:54.531Z,97459.86
2022-12-14T19:09:40.170Z,97452.29
2022-12-14T19:12:58.424Z,97454.66
2022-12-14T19:16:16.992Z,97443.81
2022-12-14T19:19:39.524Z,97441.84
2022-12-14T19:22:53.619Z,97427.95
2022-12-14T19:26:11.046Z,97415.55
2022-12-14T19:29:27.768Z,97420.50
2022-12-14T19:32:45.039Z,97405.41
2022-12-14T19:36:04.005Z,97413.31
2022-12-14T19:39:23.818Z,97410.05
2022-12-14T19:42:41.702Z,97400.85
2022-12-14T19:45:58.504Z,97401.17
2022-12-14T19:49:17.864Z,97390.45
2022-12-14T19:52:35.293Z,97396.44
2022-12-14T19:55:58.948Z,97397.15
2022-12-14T20:02:33.184Z,97389.69
2022-12-14T20:05:56.956Z,97379.80
2022-12-14T20:09:15.248Z,97372.84
2022-12-14T20:12:32.154Z,97376.00
2022-12-14T20:15:54.680Z,97377.66
2022-12-14T20:19:12.272Z,97371.53
2022-12-14T20:22:31.228Z,97373.98
2022-12-14T20:25:47.592Z,97381.50
2022-12-14T20:29:06.789Z,97386.81
2022-12-14T20:32:23.341Z,97394.28
2022-12-14T20:35:41.228Z,97403.84
2022-12-14T20:39:03.136Z,97381.38
2022-12-14T20:42:19.605Z,97392.86
2022-12-14T20:45:36.091Z,97381.77
2022-12-14T20:48:55.811Z,97381.94
2022-12-14T20:52:12.449Z,97385.81
2022-12-14T20:55:29.794Z,97387.59
2022-12-14T20:58:58.257Z,97392.78
2022-12-14T21:02:17.130Z,97391.44
2022-12-14T21:05:33.868Z,97390.73
2022-12-14T21:09:04.656Z,97382.45
2022-12-14T21:12:26.985Z,97384.53
2022-12-14T21:15:44.587Z,97385.94
2022-12-14T21:19:01.002Z,97393.45
2022-12-14T21:22:21.193Z,97392.64
2022-12-14T21:25:37.371Z,97388.13
2022-12-14T21:28:53.585Z,97389.65
2022-12-14T21:32:10.541Z,97403.31
2022-12-14T21:35:26.962Z,97394.02
2022-12-14T21:38:43.996Z,97389.62
2022-12-14T21:42:16.643Z,97396.42
2022-12-14T21:45:33.235Z,97405.84
2022-12-14T21:48:49.549Z,97403.83
2022-12-14T21:52:07.634Z,97409.72
2022-12-14T21:55:24.263Z,97397.94
2022-12-14T21:58:40.551Z,97394.30
2022-12-14T22:01:56.951Z,97396.61
2022-12-14T22:05:15.320Z,97406.34
2022-12-14T22:08:31.733Z,97395.87
2022-12-14T22:11:48.280Z,97398.56
2022-12-14T22:15:04.507Z,97401.73
2022-12-14T22:18:20.756Z,97407.35
2022-12-14T22:21:37.448Z,97396.81
2022-12-14T22:24:55.649Z,97397.42
2022-12-14T22:28:12.105Z,97396.88
2022-12-14T22:31:29.015Z,97399.48
2022-12-14T22:34:45.933Z,97401.09
2022-12-14T22:38:02.123Z,97400.02
2022-12-14T22:41:20.687Z,97399.78
2022-12-14T22:44:37.202Z,97398.97
2022-12-14T22:47:53.460Z,97401.66
2022-12-14T22:51:12.818Z,97387.25
2022-12-14T22:54:31.680Z,97388.33
2022-12-14T22:57:50.840Z,97381.77
2022-12-14T23:01:07.524Z,97392.14
2022-12-14T23:04:24.253Z,97390.63
2022-12-14T23:07:41.077Z,97392.75
2022-12-14T23:11:11.214Z,97388.53
2022-12-14T23:14:42.341Z,97396.05
2022-12-14T23:18:16.973Z,97391.80
2022-12-14T23:21:47.092Z,97391.43
2022-12-14T23:25:17.218Z,97387.56
2022-12-14T23:28:49.955Z,97379.84
2022-12-14T23:32:21.146Z,97389.91
2022-12-14T23:35:51.161Z,97399.01
2022-12-14T23:39:21.814Z,97392.88
2022-12-14T23:42:52.116Z,97400.42
2022-12-14T23:46:24.811Z,97406.17
2022-12-14T23:49:54.891Z,97410.72
2022-12-14T23:53:29.937Z,97401.05
2022-12-14T23:57:00.401Z,97409.64
